Florence, Wisconsin
Current Conditions -  °F | °C
As of 12:11 AM on Saturday 29 Nov 2014 (Local Time) from KIMT Reporting Station
Overcast Overcast  
Wind Chill: 16°   Ceiling: 1400
Heat Index: 16°   Visibility: 10mi
Dew Point: 12°   Wind: 0mph
Humidity: 84%   Direction: NA
Pressure: 29.8"   Gusts: NA
Location:  45.92°N, 88.25°W
Report Text: KIMT 290611Z AUTO 00000KT 10SM FEW008 OVC014 M09/M11 A2980 RMK AO2 T10891111
Loading
Personal Weather Stations






























Interactive Weather Map New forecast layout! Learn more

10-Day Weather Forecast

Advertisements
Track Severe Weather on mobile